sensor_id;sensor_type;location;lat;lon;timestamp;pressure;altitude;pressure_sealevel;temperature;humidity
63739;BME280;68816;45.558;10.070;2023-04-28T05:31:43;100286.13;;;14.27;60.41
63739;BME280;68816;45.558;10.070;2023-04-28T05:34:08;100294.03;;;14.35;61.24
63739;BME280;68816;45.558;10.070;2023-04-28T05:36:34;100293.91;;;14.42;59.95
63739;BME280;68816;45.558;10.070;2023-04-28T05:39:00;100290.34;;;14.46;61.38
63739;BME280;68816;45.558;10.070;2023-04-28T05:41:25;100306.03;;;14.52;59.23
63739;BME280;68816;45.558;10.070;2023-04-28T05:43:50;100309.16;;;14.56;59.81
63739;BME280;68816;45.558;10.070;2023-04-28T05:46:16;100308.63;;;14.59;61.40
63739;BME280;68816;45.558;10.070;2023-04-28T05:48:42;100310.56;;;14.58;61.85
63739;BME280;68816;45.558;10.070;2023-04-28T05:51:07;100308.69;;;14.64;59.19
63739;BME280;68816;45.558;10.070;2023-04-28T05:53:33;100302.16;;;14.75;59.29
63739;BME280;68816;45.558;10.070;2023-04-28T05:55:58;100308.84;;;14.74;57.25
63739;BME280;68816;45.558;10.070;2023-04-28T05:58:24;100305.41;;;14.67;59.31
63739;BME280;68816;45.558;10.070;2023-04-28T06:00:49;100311.06;;;14.72;57.05
63739;BME280;68816;45.558;10.070;2023-04-28T06:03:14;100312.75;;;14.73;56.41
63739;BME280;68816;45.558;10.070;2023-04-28T06:05:43;100319.09;;;14.90;56.64
63739;BME280;68816;45.558;10.070;2023-04-28T06:08:09;100318.38;;;15.00;57.31
63739;BME280;68816;45.558;10.070;2023-04-28T06:10:34;100327.28;;;15.18;55.84
63739;BME280;68816;45.558;10.070;2023-04-28T06:13:00;100318.78;;;15.30;55.25
63739;BME280;68816;45.558;10.070;2023-04-28T06:15:26;100320.97;;;15.28;57.05
63739;BME280;68816;45.558;10.070;2023-04-28T06:17:52;100324.34;;;15.30;57.44
63739;BME280;68816;45.558;10.070;2023-04-28T06:20:18;100308.13;;;15.27;57.02
63739;BME280;68816;45.558;10.070;2023-04-28T06:22:44;100303.75;;;15.31;57.80
63739;BME280;68816;45.558;10.070;2023-04-28T06:25:10;100310.41;;;15.52;56.67
63739;BME280;68816;45.558;10.070;2023-04-28T06:27:35;100301.97;;;15.74;58.39
63739;BME280;68816;45.558;10.070;2023-04-28T06:30:01;100309.88;;;15.82;55.62
63739;BME280;68816;45.558;10.070;2023-04-28T06:32:26;100304.91;;;15.84;54.31
63739;BME280;68816;45.558;10.070;2023-04-28T06:34:52;100314.34;;;15.83;53.87
63739;BME280;68816;45.558;10.070;2023-04-28T06:37:17;100314.56;;;15.76;53.03
63739;BME280;68816;45.558;10.070;2023-04-28T06:39:43;100326.06;;;15.85;51.74
63739;BME280;68816;45.558;10.070;2023-04-28T06:42:08;100321.81;;;16.04;52.87
63739;BME280;68816;45.558;10.070;2023-04-28T06:44:34;100319.09;;;16.14;53.88
63739;BME280;68816;45.558;10.070;2023-04-28T06:46:59;100323.13;;;16.28;54.78
63739;BME280;68816;45.558;10.070;2023-04-28T06:49:25;100322.94;;;16.40;53.62
63739;BME280;68816;45.558;10.070;2023-04-28T06:51:51;100317.97;;;16.47;54.90
63739;BME280;68816;45.558;10.070;2023-04-28T06:54:17;100323.94;;;16.61;51.84
63739;BME280;68816;45.558;10.070;2023-04-28T06:56:42;100322.88;;;16.67;53.25
63739;BME280;68816;45.558;10.070;2023-04-28T06:59:08;100321.50;;;16.69;54.26
63739;BME280;68816;45.558;10.070;2023-04-28T07:01:33;100324.34;;;16.79;54.88
63739;BME280;68816;45.558;10.070;2023-04-28T07:03:59;100326.06;;;16.86;54.87
63739;BME280;68816;45.558;10.070;2023-04-28T07:06:25;100318.31;;;16.98;54.45
63739;BME280;68816;45.558;10.070;2023-04-28T07:08:52;100314.94;;;16.96;53.89
63739;BME280;68816;45.558;10.070;2023-04-28T07:11:17;100319.78;;;17.10;53.24
63739;BME280;68816;45.558;10.070;2023-04-28T07:13:43;100316.72;;;17.12;50.95
63739;BME280;68816;45.558;10.070;2023-04-28T07:16:10;100316.19;;;17.25;53.48
63739;BME280;68816;45.558;10.070;2023-04-28T07:18:36;100318.66;;;17.11;50.61
63739;BME280;68816;45.558;10.070;2023-04-28T07:21:01;100327.94;;;17.22;50.08
63739;BME280;68816;45.558;10.070;2023-04-28T07:23:27;100324.03;;;17.28;49.78
63739;BME280;68816;45.558;10.070;2023-04-28T07:25:52;100333.78;;;17.20;48.67
63739;BME280;68816;45.558;10.070;2023-04-28T07:28:18;100320.88;;;17.09;48.33
63739;BME280;68816;45.558;10.070;2023-04-28T07:30:44;100326.19;;;17.11;48.47
63739;BME280;68816;45.558;10.070;2023-04-28T07:33:10;100318.66;;;17.06;48.65
63739;BME280;68816;45.558;10.070;2023-04-28T07:35:35;100317.84;;;17.16;48.01
63739;BME280;68816;45.558;10.070;2023-04-28T07:38:01;100308.94;;;17.29;47.26
63739;BME280;68816;45.558;10.070;2023-04-28T07:40:26;100298.38;;;17.41;48.51
63739;BME280;68816;45.558;10.070;2023-04-28T07:42:52;100297.25;;;17.47;49.18
63739;BME280;68816;45.558;10.070;2023-04-28T07:45:17;100301.19;;;17.51;48.72
63739;BME280;68816;45.558;10.070;2023-04-28T07:47:43;100292.25;;;17.59;49.42
63739;BME280;68816;45.558;10.070;2023-04-28T07:50:10;100288.66;;;17.64;49.36
63739;BME280;68816;45.558;10.070;2023-04-28T07:52:36;100290.63;;;17.74;48.07
63739;BME280;68816;45.558;10.070;2023-04-28T07:55:01;100282.25;;;17.74;47.22
63739;BME280;68816;45.558;10.070;2023-04-28T07:57:29;100286.72;;;17.75;48.41
63739;BME280;68816;45.558;10.070;2023-04-28T07:59:57;100285.03;;;17.79;47.50
63739;BME280;68816;45.558;10.070;2023-04-28T08:02:27;100286.47;;;17.91;46.78
63739;BME280;68816;45.558;10.070;2023-04-28T08:04:52;100290.09;;;17.92;46.37
63739;BME280;68816;45.558;10.070;2023-04-28T08:07:18;100290.09;;;17.87;46.84
63739;BME280;68816;45.558;10.070;2023-04-28T08:09:44;100278.25;;;17.44;45.67
63739;BME280;68816;45.558;10.070;2023-04-28T08:12:13;100293.91;;;17.55;45.82
63739;BME280;68816;45.558;10.070;2023-04-28T08:14:38;100299.88;;;17.69;47.09
63739;BME280;68816;45.558;10.070;2023-04-28T08:17:04;100307.44;;;17.84;47.34
63739;BME280;68816;45.558;10.070;2023-04-28T08:19:29;100311.38;;;17.88;46.03
63739;BME280;68816;45.558;10.070;2023-04-28T08:21:55;100308.00;;;17.76;42.43
63739;BME280;68816;45.558;10.070;2023-04-28T08:24:20;100300.41;;;17.66;42.63
63739;BME280;68816;45.558;10.070;2023-04-28T08:26:46;100303.50;;;17.80;44.30
63739;BME280;68816;45.558;10.070;2023-04-28T08:29:11;100298.50;;;17.87;44.61
63739;BME280;68816;45.558;10.070;2023-04-28T08:31:37;100302.44;;;18.16;45.76
63739;BME280;68816;45.558;10.070;2023-04-28T08:34:03;100300.44;;;18.42;43.60
63739;BME280;68816;45.558;10.070;2023-04-28T08:36:28;100293.19;;;18.21;41.28
63739;BME280;68816;45.558;10.070;2023-04-28T08:38:57;100285.88;;;18.50;42.00
63739;BME280;68816;45.558;10.070;2023-04-28T08:41:24;100283.34;;;18.74;43.04
63739;BME280;68816;45.558;10.070;2023-04-28T08:43:52;100277.09;;;18.97;42.63
63739;BME280;68816;45.558;10.070;2023-04-28T08:46:20;100275.34;;;19.11;42.24
63739;BME280;68816;45.558;10.070;2023-04-28T08:48:47;100277.03;;;19.12;39.82
63739;BME280;68816;45.558;10.070;2023-04-28T08:51:15;100279.22;;;19.25;41.75
63739;BME280;68816;45.558;10.070;2023-04-28T08:53:44;100288.44;;;19.31;40.08
63739;BME280;68816;45.558;10.070;2023-04-28T08:56:15;100286.59;;;19.65;41.10
63739;BME280;68816;45.558;10.070;2023-04-28T08:58:42;100289.81;;;19.88;39.38
63739;BME280;68816;45.558;10.070;2023-04-28T09:01:08;100291.16;;;19.95;39.58
63739;BME280;68816;45.558;10.070;2023-04-28T09:03:34;100285.81;;;19.55;36.15
63739;BME280;68816;45.558;10.070;2023-04-28T09:06:00;100286.38;;;19.96;38.02
63739;BME280;68816;45.558;10.070;2023-04-28T09:08:26;100287.09;;;20.12;38.08
63739;BME280;68816;45.558;10.070;2023-04-28T09:11:17;100287.13;;;20.06;38.47
63739;BME280;68816;45.558;10.070;2023-04-28T09:13:43;100296.03;;;20.19;37.84
63739;BME280;68816;45.558;10.070;2023-04-28T09:16:11;100282.03;;;19.80;37.65
63739;BME280;68816;45.558;10.070;2023-04-28T09:18:40;100290.69;;;19.83;37.36
63739;BME280;68816;45.558;10.070;2023-04-28T09:21:19;100286.78;;;19.79;38.05
63739;BME280;68816;45.558;10.070;2023-04-28T09:23:47;100292.38;;;19.84;36.90
63739;BME280;68816;45.558;10.070;2023-04-28T09:26:18;100277.16;;;19.90;38.06
63739;BME280;68816;45.558;10.070;2023-04-28T09:28:44;100284.03;;;20.08;36.48
63739;BME280;68816;45.558;10.070;2023-04-28T09:31:29;100269.69;;;20.15;35.74
63739;BME280;68816;45.558;10.070;2023-04-28T09:33:59;100263.34;;;20.28;33.83
63739;BME280;68816;45.558;10.070;2023-04-28T09:36:27;100262.84;;;20.26;35.01
63739;BME280;68816;45.558;10.070;2023-04-28T09:48:11;100249.53;;;20.65;34.13
63739;BME280;68816;45.558;10.070;2023-04-28T09:50:38;100249.69;;;20.98;32.80
63739;BME280;68816;45.558;10.070;2023-04-28T09:53:04;100243.09;;;20.88;33.33
63739;BME280;68816;45.558;10.070;2023-04-28T09:55:33;100257.72;;;21.09;33.31
63739;BME280;68816;45.558;10.070;2023-04-28T09:58:08;100253.53;;;21.07;33.17
63739;BME280;68816;45.558;10.070;2023-04-28T10:00:38;100237.31;;;20.99;32.60
63739;BME280;68816;45.558;10.070;2023-04-28T10:05:39;100231.19;;;21.39;34.69
63739;BME280;68816;45.558;10.070;2023-04-28T10:08:06;100224.41;;;21.40;31.77
63739;BME280;68816;45.558;10.070;2023-04-28T10:10:32;100228.59;;;21.24;32.73
63739;BME280;68816;45.558;10.070;2023-04-28T10:12:58;100219.00;;;21.44;33.31
63739;BME280;68816;45.558;10.070;2023-04-28T10:15:24;100221.22;;;21.47;31.24
63739;BME280;68816;45.558;10.070;2023-04-28T10:17:50;100228.91;;;21.41;30.82
63739;BME280;68816;45.558;10.070;2023-04-28T10:20:17;100223.25;;;20.99;32.64
63739;BME280;68816;45.558;10.070;2023-04-28T10:25:30;100221.38;;;21.18;31.72
63739;BME280;68816;45.558;10.070;2023-04-28T10:28:06;100208.69;;;21.58;33.13
63739;BME280;68816;45.558;10.070;2023-04-28T10:30:33;100204.25;;;21.70;32.32
63739;BME280;68816;45.558;10.070;2023-04-28T10:38:12;100221.00;;;21.43;31.35
63739;BME280;68816;45.558;10.070;2023-04-28T10:40:43;100219.25;;;21.47;30.68
63739;BME280;68816;45.558;10.070;2023-04-28T10:43:31;100206.91;;;21.62;29.95
63739;BME280;68816;45.558;10.070;2023-04-28T10:56:15;100222.44;;;21.78;32.27
63739;BME280;68816;45.558;10.070;2023-04-28T10:58:54;100215.50;;;21.89;31.28
63739;BME280;68816;45.558;10.070;2023-04-28T11:06:39;100201.81;;;22.47;29.23
63739;BME280;68816;45.558;10.070;2023-04-28T11:11:37;100198.53;;;22.54;28.61
63739;BME280;68816;45.558;10.070;2023-04-28T11:16:52;100188.66;;;22.84;28.63
63739;BME280;68816;45.558;10.070;2023-04-28T11:19:23;100182.66;;;22.17;29.48
63739;BME280;68816;45.558;10.070;2023-04-28T11:21:50;100184.56;;;22.63;28.24
63739;BME280;68816;45.558;10.070;2023-04-28T11:24:16;100180.22;;;22.98;27.98
63739;BME280;68816;45.558;10.070;2023-04-28T11:26:43;100189.38;;;23.17;27.83
63739;BME280;68816;45.558;10.070;2023-04-28T11:29:10;100177.44;;;23.33;26.96
63739;BME280;68816;45.558;10.070;2023-04-28T11:31:36;100165.19;;;23.38;28.48
63739;BME280;68816;45.558;10.070;2023-04-28T11:34:09;100158.69;;;23.73;29.04
63739;BME280;68816;45.558;10.070;2023-04-28T11:36:39;100163.38;;;23.78;27.40
63739;BME280;68816;45.558;10.070;2023-04-28T11:39:06;100155.47;;;23.66;26.79
63739;BME280;68816;45.558;10.070;2023-04-28T11:41:37;100145.53;;;23.47;27.49
63739;BME280;68816;45.558;10.070;2023-04-28T11:44:13;100137.72;;;22.94;27.63
63739;BME280;68816;45.558;10.070;2023-04-28T11:49:46;100137.47;;;22.90;29.95
63739;BME280;68816;45.558;10.070;2023-04-28T11:52:12;100134.38;;;22.65;30.31
63739;BME280;68816;45.558;10.070;2023-04-28T11:54:38;100131.44;;;22.70;29.10
63739;BME280;68816;45.558;10.070;2023-04-28T11:57:25;100127.28;;;22.53;29.62
63739;BME280;68816;45.558;10.070;2023-04-28T12:02:34;100105.75;;;22.71;29.46
63739;BME280;68816;45.558;10.070;2023-04-28T12:05:07;100097.81;;;22.87;28.88
63739;BME280;68816;45.558;10.070;2023-04-28T12:07:42;100071.44;;;23.05;28.92
63739;BME280;68816;45.558;10.070;2023-04-28T12:10:15;100093.38;;;23.30;28.95
63739;BME280;68816;45.558;10.070;2023-04-28T12:12:46;100100.38;;;23.47;29.04
63739;BME280;68816;45.558;10.070;2023-04-28T12:15:14;100099.22;;;23.34;28.22
63739;BME280;68816;45.558;10.070;2023-04-28T12:17:49;100090.41;;;23.13;28.49
63739;BME280;68816;45.558;10.070;2023-04-28T12:20:37;100106.78;;;23.25;27.79
63739;BME280;68816;45.558;10.070;2023-04-28T12:23:05;100095.44;;;23.16;28.90
63739;BME280;68816;45.558;10.070;2023-04-28T12:25:32;100108.84;;;23.47;27.21
63739;BME280;68816;45.558;10.070;2023-04-28T12:28:17;100108.63;;;23.65;27.20
63739;BME280;68816;45.558;10.070;2023-04-28T12:31:03;100065.31;;;23.48;27.51
63739;BME280;68816;45.558;10.070;2023-04-28T12:36:10;100080.22;;;23.62;28.13
63739;BME280;68816;45.558;10.070;2023-04-28T12:38:47;100093.81;;;23.60;28.33
63739;BME280;68816;45.558;10.070;2023-04-28T12:41:13;100086.78;;;23.35;28.79
63739;BME280;68816;45.558;10.070;2023-04-28T12:43:39;100080.34;;;23.57;27.93
63739;BME280;68816;45.558;10.070;2023-04-28T12:46:05;100078.06;;;23.23;28.75
63739;BME280;68816;45.558;10.070;2023-04-28T12:48:33;100075.69;;;23.16;28.84
63739;BME280;68816;45.558;10.070;2023-04-28T12:50:59;100082.31;;;23.34;28.92
63739;BME280;68816;45.558;10.070;2023-04-28T12:53:48;100071.91;;;23.65;29.13
63739;BME280;68816;45.558;10.070;2023-04-28T12:56:15;100036.38;;;23.95;29.51
63739;BME280;68816;45.558;10.070;2023-04-28T12:58:45;100073.25;;;24.69;29.60
63739;BME280;68816;45.558;10.070;2023-04-28T13:01:10;100068.34;;;24.44;26.85
63739;BME280;68816;45.558;10.070;2023-04-28T13:03:36;100053.34;;;24.35;27.11
63739;BME280;68816;45.558;10.070;2023-04-28T13:06:02;100062.69;;;24.52;28.11
63739;BME280;68816;45.558;10.070;2023-04-28T13:08:27;100066.13;;;24.01;27.21
63739;BME280;68816;45.558;10.070;2023-04-28T13:10:55;100058.72;;;24.14;27.78
63739;BME280;68816;45.558;10.070;2023-04-28T13:13:21;100051.34;;;24.27;27.87
63739;BME280;68816;45.558;10.070;2023-04-28T13:15:47;100049.28;;;24.19;28.41
63739;BME280;68816;45.558;10.070;2023-04-28T13:18:12;100049.88;;;24.38;28.82
63739;BME280;68816;45.558;10.070;2023-04-28T13:20:37;100042.09;;;24.12;27.41
63739;BME280;68816;45.558;10.070;2023-04-28T13:23:04;100046.97;;;23.90;29.82
63739;BME280;68816;45.558;10.070;2023-04-28T13:25:29;100026.88;;;23.91;27.66
63739;BME280;68816;45.558;10.070;2023-04-28T13:27:55;100023.44;;;24.34;27.64
63739;BME280;68816;45.558;10.070;2023-04-28T13:30:20;100016.06;;;24.98;28.15
63739;BME280;68816;45.558;10.070;2023-04-28T13:32:46;99995.91;;;24.91;26.59
63739;BME280;68816;45.558;10.070;2023-04-28T13:35:11;99997.56;;;25.18;26.78
63739;BME280;68816;45.558;10.070;2023-04-28T13:37:37;100004.50;;;24.60;26.93
63739;BME280;68816;45.558;10.070;2023-04-28T13:40:07;99991.94;;;25.09;27.08
63739;BME280;68816;45.558;10.070;2023-04-28T13:42:33;99986.75;;;24.94;26.24
63739;BME280;68816;45.558;10.070;2023-04-28T13:44:58;99987.88;;;24.50;26.70
63739;BME280;68816;45.558;10.070;2023-04-28T13:47:23;99972.94;;;25.01;26.41
63739;BME280;68816;45.558;10.070;2023-04-28T13:49:50;99974.09;;;25.00;26.67
63739;BME280;68816;45.558;10.070;2023-04-28T13:52:16;99982.41;;;24.88;27.03
63739;BME280;68816;45.558;10.070;2023-04-28T13:54:41;99967.78;;;24.94;27.01
63739;BME280;68816;45.558;10.070;2023-04-28T13:57:07;99947.88;;;25.46;26.10
63739;BME280;68816;45.558;10.070;2023-04-28T13:59:33;99958.28;;;25.80;25.61
63739;BME280;68816;45.558;10.070;2023-04-28T14:01:58;99963.53;;;25.52;26.16
63739;BME280;68816;45.558;10.070;2023-04-28T14:04:27;99958.63;;;25.15;26.02
63739;BME280;68816;45.558;10.070;2023-04-28T14:06:52;99965.03;;;25.67;27.20
63739;BME280;68816;45.558;10.070;2023-04-28T14:09:17;99953.91;;;25.91;25.58
63739;BME280;68816;45.558;10.070;2023-04-28T14:11:43;99951.69;;;25.59;25.36
63739;BME280;68816;45.558;10.070;2023-04-28T14:14:09;99949.19;;;25.57;25.71
63739;BME280;68816;45.558;10.070;2023-04-28T14:16:34;99950.56;;;25.43;25.61
63739;BME280;68816;45.558;10.070;2023-04-28T14:19:00;99945.44;;;25.83;25.75
63739;BME280;68816;45.558;10.070;2023-04-28T14:21:25;99944.03;;;25.59;26.02
63739;BME280;68816;45.558;10.070;2023-04-28T14:23:51;99901.31;;;25.18;26.92
63739;BME280;68816;45.558;10.070;2023-04-28T14:26:16;99946.13;;;25.80;25.93
63739;BME280;68816;45.558;10.070;2023-04-28T14:28:43;99929.22;;;25.45;26.17
63739;BME280;68816;45.558;10.070;2023-04-28T14:31:08;99923.97;;;25.26;26.47
63739;BME280;68816;45.558;10.070;2023-04-28T14:33:34;99930.63;;;25.86;25.92
63739;BME280;68816;45.558;10.070;2023-04-28T14:36:00;99936.53;;;26.01;25.86
63739;BME280;68816;45.558;10.070;2023-04-28T14:38:26;99908.41;;;25.41;26.22
63739;BME280;68816;45.558;10.070;2023-04-28T14:40:53;99935.97;;;25.79;25.92
63739;BME280;68816;45.558;10.070;2023-04-28T14:43:18;99933.09;;;26.46;26.63
63739;BME280;68816;45.558;10.070;2023-04-28T14:45:44;99942.97;;;26.90;25.30
63739;BME280;68816;45.558;10.070;2023-04-28T14:48:10;99949.41;;;26.28;25.33
63739;BME280;68816;45.558;10.070;2023-04-28T14:50:35;99937.91;;;25.87;26.15
63739;BME280;68816;45.558;10.070;2023-04-28T14:53:01;99924.22;;;25.51;26.70
63739;BME280;68816;45.558;10.070;2023-04-28T14:55:32;99918.69;;;25.63;26.54
63739;BME280;68816;45.558;10.070;2023-04-28T14:57:57;99906.22;;;25.93;26.27
63739;BME280;68816;45.558;10.070;2023-04-28T15:00:23;99914.72;;;25.93;25.65
63739;BME280;68816;45.558;10.070;2023-04-28T15:02:48;99910.41;;;26.16;26.21
63739;BME280;68816;45.558;10.070;2023-04-28T15:05:14;99908.63;;;26.12;25.68
63739;BME280;68816;45.558;10.070;2023-04-28T15:07:39;99906.59;;;26.63;24.84
63739;BME280;68816;45.558;10.070;2023-04-28T15:10:05;99900.66;;;26.55;25.27
63739;BME280;68816;45.558;10.070;2023-04-28T15:12:31;99907.75;;;25.91;25.66
63739;BME280;68816;45.558;10.070;2023-04-28T15:14:58;99899.81;;;25.75;26.00
63739;BME280;68816;45.558;10.070;2023-04-28T15:17:24;99898.13;;;25.74;25.83
63739;BME280;68816;45.558;10.070;2023-04-28T15:19:49;99890.84;;;25.73;26.07
63739;BME280;68816;45.558;10.070;2023-04-28T15:22:15;99893.38;;;25.58;26.67
63739;BME280;68816;45.558;10.070;2023-04-28T15:24:41;99882.22;;;25.61;26.53
63739;BME280;68816;45.558;10.070;2023-04-28T15:27:07;99872.56;;;25.62;26.24
63739;BME280;68816;45.558;10.070;2023-04-28T15:29:33;99894.44;;;26.12;25.75
63739;BME280;68816;45.558;10.070;2023-04-28T15:31:58;99883.72;;;26.26;26.16
63739;BME280;68816;45.558;10.070;2023-04-28T15:34:24;99887.66;;;26.54;25.13
63739;BME280;68816;45.558;10.070;2023-04-28T15:36:51;99883.34;;;26.69;24.68
63739;BME280;68816;45.558;10.070;2023-04-28T15:39:19;99887.50;;;26.30;25.51
63739;BME280;68816;45.558;10.070;2023-04-28T15:41:45;99888.00;;;26.03;26.11
63739;BME280;68816;45.558;10.070;2023-04-28T15:44:10;99880.47;;;25.77;26.32
63739;BME280;68816;45.558;10.070;2023-04-28T15:46:36;99878.41;;;25.49;26.77
63739;BME280;68816;45.558;10.070;2023-04-28T15:49:02;99890.22;;;25.59;27.27
63739;BME280;68816;45.558;10.070;2023-04-28T15:51:28;99881.47;;;25.35;27.37
63739;BME280;68816;45.558;10.070;2023-04-28T15:53:53;99882.28;;;25.35;27.01
63739;BME280;68816;45.558;10.070;2023-04-28T15:56:20;99885.09;;;25.44;26.84
63739;BME280;68816;45.558;10.070;2023-04-28T15:58:47;99879.59;;;25.56;26.98
63739;BME280;68816;45.558;10.070;2023-04-28T16:01:12;99879.75;;;26.10;26.34
63739;BME280;68816;45.558;10.070;2023-04-28T16:03:38;99878.91;;;26.39;25.54
63739;BME280;68816;45.558;10.070;2023-04-28T16:06:07;99874.53;;;26.83;25.21
63739;BME280;68816;45.558;10.070;2023-04-28T16:08:33;99874.75;;;26.78;24.78
63739;BME280;68816;45.558;10.070;2023-04-28T16:10:59;99869.81;;;27.77;23.66
63739;BME280;68816;45.558;10.070;2023-04-28T16:13:26;99852.13;;;28.08;23.43
63739;BME280;68816;45.558;10.070;2023-04-28T16:15:55;99862.00;;;27.05;24.96
63739;BME280;68816;45.558;10.070;2023-04-28T16:18:21;99855.31;;;27.33;24.74
63739;BME280;68816;45.558;10.070;2023-04-28T16:20:46;99845.69;;;29.03;22.31
63739;BME280;68816;45.558;10.070;2023-04-28T16:23:12;99840.28;;;30.43;20.35
63739;BME280;68816;45.558;10.070;2023-04-28T16:25:37;99842.47;;;29.64;20.65
63739;BME280;68816;45.558;10.070;2023-04-28T16:28:03;99840.34;;;29.61;21.26
63739;BME280;68816;45.558;10.070;2023-04-28T16:30:28;99841.41;;;29.25;21.72
63739;BME280;68816;45.558;10.070;2023-04-28T16:32:54;99838.25;;;29.58;20.91
63739;BME280;68816;45.558;10.070;2023-04-28T16:35:25;99831.44;;;29.62;20.82
63739;BME280;68816;45.558;10.070;2023-04-28T16:37:51;99820.16;;;29.34;21.14
63739;BME280;68816;45.558;10.070;2023-04-28T16:40:16;99837.72;;;28.13;23.03
63739;BME280;68816;45.558;10.070;2023-04-28T16:42:42;99855.13;;;27.87;23.13
63739;BME280;68816;45.558;10.070;2023-04-28T16:45:10;99840.66;;;28.16;23.20
63739;BME280;68816;45.558;10.070;2023-04-28T16:47:36;99837.91;;;27.35;24.26
63739;BME280;68816;45.558;10.070;2023-04-28T16:50:02;99842.22;;;26.96;25.13
63739;BME280;68816;45.558;10.070;2023-04-28T16:52:28;99844.00;;;27.70;24.24
63739;BME280;68816;45.558;10.070;2023-04-28T16:54:53;99839.00;;;28.03;23.01
63739;BME280;68816;45.558;10.070;2023-04-28T16:57:19;99836.81;;;29.05;21.89
63739;BME280;68816;45.558;10.070;2023-04-28T16:59:44;99833.00;;;29.00;22.45
63739;BME280;68816;45.558;10.070;2023-04-28T17:02:10;99837.47;;;30.08;21.04
63739;BME280;68816;45.558;10.070;2023-04-28T17:04:36;99832.28;;;30.13;20.72
63739;BME280;68816;45.558;10.070;2023-04-28T17:07:01;99831.88;;;29.80;20.88
63739;BME280;68816;45.558;10.070;2023-04-28T17:09:30;99832.47;;;28.55;22.74
63739;BME280;68816;45.558;10.070;2023-04-28T17:11:57;99836.16;;;27.30;24.39
63739;BME280;68816;45.558;10.070;2023-04-28T17:14:22;99834.44;;;26.72;25.54
63739;BME280;68816;45.558;10.070;2023-04-28T17:16:48;99836.81;;;26.29;26.34
63739;BME280;68816;45.558;10.070;2023-04-28T17:19:14;99828.88;;;26.43;26.22
63739;BME280;68816;45.558;10.070;2023-04-28T17:21:44;99821.09;;;25.60;27.83
63739;BME280;68816;45.558;10.070;2023-04-28T17:24:10;99817.72;;;25.67;27.60
63739;BME280;68816;45.558;10.070;2023-04-28T17:26:36;99821.81;;;25.40;28.32
63739;BME280;68816;45.558;10.070;2023-04-28T17:29:02;99814.97;;;25.79;27.84
63739;BME280;68816;45.558;10.070;2023-04-28T17:31:28;99822.41;;;25.16;29.14
63739;BME280;68816;45.558;10.070;2023-04-28T17:33:55;99817.41;;;24.49;30.15
63739;BME280;68816;45.558;10.070;2023-04-28T17:36:21;99830.81;;;24.01;31.15
63739;BME280;68816;45.558;10.070;2023-04-28T17:38:55;99812.50;;;23.72;32.02
63739;BME280;68816;45.558;10.070;2023-04-28T17:41:22;99830.38;;;23.51;31.96
63739;BME280;68816;45.558;10.070;2023-04-28T17:43:48;99814.50;;;23.32;32.60
63739;BME280;68816;45.558;10.070;2023-04-28T17:46:15;99825.28;;;23.30;32.80
63739;BME280;68816;45.558;10.070;2023-04-28T17:48:41;99832.44;;;22.97;34.18
63739;BME280;68816;45.558;10.070;2023-04-28T17:51:07;99814.69;;;22.97;34.32
63739;BME280;68816;45.558;10.070;2023-04-28T17:53:32;99810.00;;;22.92;34.11
63739;BME280;68816;45.558;10.070;2023-04-28T17:55:59;99809.50;;;22.68;34.96
63739;BME280;68816;45.558;10.070;2023-04-28T17:58:25;99809.72;;;22.49;35.44
63739;BME280;68816;45.558;10.070;2023-04-28T18:01:02;99806.41;;;22.47;35.62
63739;BME280;68816;45.558;10.070;2023-04-28T18:03:28;99805.31;;;22.12;36.19
63739;BME280;68816;45.558;10.070;2023-04-28T18:05:54;99809.69;;;22.04;36.18
63739;BME280;68816;45.558;10.070;2023-04-28T18:08:19;99794.91;;;21.99;36.17
63739;BME280;68816;45.558;10.070;2023-04-28T18:10:46;99809.31;;;21.84;36.92
63739;BME280;68816;45.558;10.070;2023-04-28T18:13:11;99797.41;;;21.87;36.94
63739;BME280;68816;45.558;10.070;2023-04-28T18:15:37;99805.16;;;21.95;36.99
63739;BME280;68816;45.558;10.070;2023-04-28T18:18:03;99806.56;;;21.92;36.90
63739;BME280;68816;45.558;10.070;2023-04-28T18:20:29;99803.69;;;21.84;36.85
63739;BME280;68816;45.558;10.070;2023-04-28T18:22:55;99806.22;;;21.71;37.58
63739;BME280;68816;45.558;10.070;2023-04-28T18:25:21;99810.28;;;21.65;37.96
63739;BME280;68816;45.558;10.070;2023-04-28T18:27:48;99813.28;;;21.69;37.66
63739;BME280;68816;45.558;10.070;2023-04-28T18:30:14;99834.38;;;21.71;38.23
63739;BME280;68816;45.558;10.070;2023-04-28T18:32:39;99834.97;;;21.68;37.87
63739;BME280;68816;45.558;10.070;2023-04-28T18:35:05;99838.84;;;21.59;38.43
63739;BME280;68816;45.558;10.070;2023-04-28T18:37:30;99835.53;;;21.43;39.55
63739;BME280;68816;45.558;10.070;2023-04-28T18:39:56;99835.41;;;21.35;39.50
63739;BME280;68816;45.558;10.070;2023-04-28T18:42:22;99833.97;;;21.37;39.17
63739;BME280;68816;45.558;10.070;2023-04-28T18:44:53;99830.81;;;21.39;40.82
63739;BME280;68816;45.558;10.070;2023-04-28T18:47:19;99831.69;;;21.25;40.58
63739;BME280;68816;45.558;10.070;2023-04-28T18:49:44;99833.22;;;21.18;40.95
63739;BME280;68816;45.558;10.070;2023-04-28T18:52:09;99830.78;;;21.11;40.57
63739;BME280;68816;45.558;10.070;2023-04-28T18:54:35;99833.84;;;21.15;40.36
63739;BME280;68816;45.558;10.070;2023-04-28T18:57:00;99841.81;;;20.94;42.09
63739;BME280;68816;45.558;10.070;2023-04-28T18:59:27;99837.38;;;20.74;42.04
63739;BME280;68816;45.558;10.070;2023-04-28T19:01:54;99821.66;;;20.60;42.63
63739;BME280;68816;45.558;10.070;2023-04-28T19:04:20;99830.59;;;20.62;43.16